Corinth Corners, Vermont
Current Conditions -  °F | °C
As of 5:51 AM on Saturday 01 Nov 2014 (Local Time) from KMPV Reporting Station
Clear Clear  
Wind Chill: 32°   Ceiling: Unl
Heat Index: 32°   Visibility: 10mi
Dew Point: 27°   Wind: 3mph
Humidity: 82%   Direction: 330°NNW
Pressure: 30.02"   Gusts: NA
Location:  44.0361°N, 72.2949°W
Report Text: KMPV 010951Z AUTO 33003KT 10SM CLR 00/M03 A3002 RMK AO2 SLP175 T00001028
Loading
Personal Weather Stations






























Interactive Weather Map New forecast layout! Learn more

10-Day Weather Forecast

Advertisements
Track Severe Weather on mobile